sensor_id;sensor_type;location;lat;lon;timestamp;pressure;altitude;pressure_sealevel;temperature;humidity
29549;BME280;16487;53.094;8.800;2023-03-12T00:00:08;100681.97;;;0.69;100.00
29549;BME280;16487;53.094;8.800;2023-03-12T00:02:36;100675.31;;;0.67;100.00
29549;BME280;16487;53.094;8.800;2023-03-12T00:05:04;100686.28;;;0.67;100.00
29549;BME280;16487;53.094;8.800;2023-03-12T00:07:32;100700.38;;;0.65;100.00
29549;BME280;16487;53.094;8.800;2023-03-12T00:09:59;100692.53;;;0.64;100.00
29549;BME280;16487;53.094;8.800;2023-03-12T00:12:26;100695.94;;;0.54;100.00
29549;BME280;16487;53.094;8.800;2023-03-12T00:14:53;100696.28;;;0.49;100.00
29549;BME280;16487;53.094;8.800;2023-03-12T00:17:22;100709.59;;;0.50;100.00
29549;BME280;16487;53.094;8.800;2023-03-12T00:19:50;100710.41;;;0.51;100.00
29549;BME280;16487;53.094;8.800;2023-03-12T00:22:18;100721.31;;;0.47;100.00
29549;BME280;16487;53.094;8.800;2023-03-12T00:24:49;100722.47;;;0.43;100.00
29549;BME280;16487;53.094;8.800;2023-03-12T00:27:17;100727.13;;;0.39;100.00
29549;BME280;16487;53.094;8.800;2023-03-12T00:29:44;100728.28;;;0.38;100.00
29549;BME280;16487;53.094;8.800;2023-03-12T00:32:11;100729.00;;;0.31;100.00
29549;BME280;16487;53.094;8.800;2023-03-12T00:34:40;100734.84;;;0.30;100.00
29549;BME280;16487;53.094;8.800;2023-03-12T00:37:07;100749.41;;;0.37;100.00
29549;BME280;16487;53.094;8.800;2023-03-12T00:39:35;100746.22;;;0.32;100.00
29549;BME280;16487;53.094;8.800;2023-03-12T00:42:03;100754.44;;;0.32;100.00
29549;BME280;16487;53.094;8.800;2023-03-12T00:44:30;100761.88;;;0.31;100.00
29549;BME280;16487;53.094;8.800;2023-03-12T00:46:57;100766.50;;;0.24;100.00
29549;BME280;16487;53.094;8.800;2023-03-12T00:49:24;100771.63;;;0.29;100.00
29549;BME280;16487;53.094;8.800;2023-03-12T00:51:53;100771.97;;;0.24;100.00
29549;BME280;16487;53.094;8.800;2023-03-12T00:54:21;100783.69;;;0.21;100.00
29549;BME280;16487;53.094;8.800;2023-03-12T00:56:49;100784.50;;;0.25;100.00
29549;BME280;16487;53.094;8.800;2023-03-12T00:59:17;100777.34;;;0.17;100.00
29549;BME280;16487;53.094;8.800;2023-03-12T01:01:44;100782.84;;;0.17;100.00
29549;BME280;16487;53.094;8.800;2023-03-12T01:04:12;100792.63;;;0.18;100.00
29549;BME280;16487;53.094;8.800;2023-03-12T01:06:39;100789.16;;;0.21;100.00
29549;BME280;16487;53.094;8.800;2023-03-12T01:09:08;100797.28;;;0.14;100.00
29549;BME280;16487;53.094;8.800;2023-03-12T01:11:36;100803.09;;;0.09;100.00
29549;BME280;16487;53.094;8.800;2023-03-12T01:14:06;100806.13;;;0.03;100.00
29549;BME280;16487;53.094;8.800;2023-03-12T01:16:34;100822.50;;;-0.04;100.00
29549;BME280;16487;53.094;8.800;2023-03-12T01:19:02;100822.88;;;-0.02;100.00
29549;BME280;16487;53.094;8.800;2023-03-12T01:21:29;100831.16;;;0.02;100.00
29549;BME280;16487;53.094;8.800;2023-03-12T01:23:57;100834.69;;;0.03;100.00
29549;BME280;16487;53.094;8.800;2023-03-12T01:26:26;100840.91;;;-0.01;100.00
29549;BME280;16487;53.094;8.800;2023-03-12T01:28:53;100844.03;;;-0.02;100.00
29549;BME280;16487;53.094;8.800;2023-03-12T01:31:21;100852.19;;;-0.06;100.00
29549;BME280;16487;53.094;8.800;2023-03-12T01:33:49;100848.19;;;-0.12;100.00
29549;BME280;16487;53.094;8.800;2023-03-12T01:36:19;100852.03;;;-0.16;100.00
29549;BME280;16487;53.094;8.800;2023-03-12T01:38:49;100856.75;;;-0.13;100.00
29549;BME280;16487;53.094;8.800;2023-03-12T01:41:17;100872.34;;;-0.17;100.00
29549;BME280;16487;53.094;8.800;2023-03-12T01:43:46;100871.88;;;-0.23;100.00
29549;BME280;16487;53.094;8.800;2023-03-12T01:46:35;100872.91;;;-0.31;100.00
29549;BME280;16487;53.094;8.800;2023-03-12T01:49:11;100886.34;;;-0.22;100.00
29549;BME280;16487;53.094;8.800;2023-03-12T01:51:43;100892.50;;;-0.29;100.00
29549;BME280;16487;53.094;8.800;2023-03-12T01:54:14;100892.38;;;-0.36;100.00
29549;BME280;16487;53.094;8.800;2023-03-12T01:56:43;100895.69;;;-0.27;100.00
29549;BME280;16487;53.094;8.800;2023-03-12T01:59:16;100905.03;;;-0.28;100.00
29549;BME280;16487;53.094;8.800;2023-03-12T02:01:46;100904.50;;;-0.37;100.00
29549;BME280;16487;53.094;8.800;2023-03-12T02:04:15;100913.19;;;-0.31;100.00
29549;BME280;16487;53.094;8.800;2023-03-12T02:06:48;100915.88;;;-0.35;100.00
29549;BME280;16487;53.094;8.800;2023-03-12T02:09:19;100923.25;;;-0.39;100.00
29549;BME280;16487;53.094;8.800;2023-03-12T02:11:48;100924.44;;;-0.36;100.00
29549;BME280;16487;53.094;8.800;2023-03-12T02:14:17;100918.97;;;-0.36;100.00
29549;BME280;16487;53.094;8.800;2023-03-12T02:16:45;100931.47;;;-0.39;100.00
29549;BME280;16487;53.094;8.800;2023-03-12T02:19:19;100926.28;;;-0.44;100.00
29549;BME280;16487;53.094;8.800;2023-03-12T02:21:49;100927.84;;;-0.43;100.00
29549;BME280;16487;53.094;8.800;2023-03-12T02:24:23;100932.59;;;-0.40;100.00
29549;BME280;16487;53.094;8.800;2023-03-12T02:26:54;100936.94;;;-0.39;100.00
29549;BME280;16487;53.094;8.800;2023-03-12T02:29:22;100942.34;;;-0.42;100.00
29549;BME280;16487;53.094;8.800;2023-03-12T02:31:52;100956.41;;;-0.44;100.00
29549;BME280;16487;53.094;8.800;2023-03-12T02:34:21;100950.06;;;-0.48;100.00
29549;BME280;16487;53.094;8.800;2023-03-12T02:36:48;100953.28;;;-0.42;100.00
29549;BME280;16487;53.094;8.800;2023-03-12T02:39:16;100957.09;;;-0.47;100.00
29549;BME280;16487;53.094;8.800;2023-03-12T02:41:45;100961.00;;;-0.48;100.00
29549;BME280;16487;53.094;8.800;2023-03-12T02:44:17;100959.13;;;-0.44;100.00
29549;BME280;16487;53.094;8.800;2023-03-12T02:46:50;100968.84;;;-0.46;100.00
29549;BME280;16487;53.094;8.800;2023-03-12T02:49:20;100975.72;;;-0.56;100.00
29549;BME280;16487;53.094;8.800;2023-03-12T02:51:48;100975.44;;;-0.51;100.00
29549;BME280;16487;53.094;8.800;2023-03-12T02:54:17;100985.94;;;-0.53;100.00
29549;BME280;16487;53.094;8.800;2023-03-12T02:56:45;100984.47;;;-0.47;100.00
29549;BME280;16487;53.094;8.800;2023-03-12T02:59:14;100989.91;;;-0.50;100.00
29549;BME280;16487;53.094;8.800;2023-03-12T03:01:44;100993.41;;;-0.50;100.00
29549;BME280;16487;53.094;8.800;2023-03-12T03:04:12;101002.06;;;-0.48;100.00
29549;BME280;16487;53.094;8.800;2023-03-12T03:06:41;100998.81;;;-0.53;100.00
29549;BME280;16487;53.094;8.800;2023-03-12T03:09:10;100995.03;;;-0.68;100.00
29549;BME280;16487;53.094;8.800;2023-03-12T03:11:38;101004.81;;;-0.48;100.00
29549;BME280;16487;53.094;8.800;2023-03-12T03:14:06;101003.59;;;-0.50;100.00
29549;BME280;16487;53.094;8.800;2023-03-12T03:16:34;101000.06;;;-0.51;100.00
29549;BME280;16487;53.094;8.800;2023-03-12T03:19:03;101010.13;;;-0.55;100.00
29549;BME280;16487;53.094;8.800;2023-03-12T03:21:31;101006.81;;;-0.45;100.00
29549;BME280;16487;53.094;8.800;2023-03-12T03:23:58;101018.50;;;-0.48;100.00
29549;BME280;16487;53.094;8.800;2023-03-12T03:26:25;101008.78;;;-0.45;100.00
29549;BME280;16487;53.094;8.800;2023-03-12T03:28:53;101018.06;;;-0.50;100.00
29549;BME280;16487;53.094;8.800;2023-03-12T03:31:20;101005.09;;;-0.53;100.00
29549;BME280;16487;53.094;8.800;2023-03-12T03:33:48;101007.16;;;-0.46;100.00
29549;BME280;16487;53.094;8.800;2023-03-12T03:36:17;101010.41;;;-0.41;100.00
29549;BME280;16487;53.094;8.800;2023-03-12T03:38:55;101006.03;;;-0.45;100.00
29549;BME280;16487;53.094;8.800;2023-03-12T03:41:23;101013.09;;;-0.44;100.00
29549;BME280;16487;53.094;8.800;2023-03-12T03:43:55;101014.94;;;-0.48;100.00
29549;BME280;16487;53.094;8.800;2023-03-12T03:46:22;101016.63;;;-0.44;100.00
29549;BME280;16487;53.094;8.800;2023-03-12T03:48:56;101018.91;;;-0.46;100.00
29549;BME280;16487;53.094;8.800;2023-03-12T03:51:25;101023.97;;;-0.48;100.00
29549;BME280;16487;53.094;8.800;2023-03-12T03:53:57;101020.41;;;-0.48;100.00
29549;BME280;16487;53.094;8.800;2023-03-12T03:56:29;101016.47;;;-0.51;100.00
29549;BME280;16487;53.094;8.800;2023-03-12T03:58:58;101023.59;;;-0.46;100.00
29549;BME280;16487;53.094;8.800;2023-03-12T04:01:26;101017.22;;;-0.31;100.00
29549;BME280;16487;53.094;8.800;2023-03-12T04:03:55;101013.41;;;-0.27;100.00
29549;BME280;16487;53.094;8.800;2023-03-12T04:06:24;101001.41;;;-0.19;100.00
29549;BME280;16487;53.094;8.800;2023-03-12T04:08:52;101004.72;;;-0.10;100.00
29549;BME280;16487;53.094;8.800;2023-03-12T04:11:22;100990.59;;;-0.12;100.00
29549;BME280;16487;53.094;8.800;2023-03-12T04:13:50;100990.66;;;-0.08;100.00
29549;BME280;16487;53.094;8.800;2023-03-12T04:16:20;100982.88;;;-0.06;100.00
29549;BME280;16487;53.094;8.800;2023-03-12T04:18:51;100980.50;;;-0.08;100.00
29549;BME280;16487;53.094;8.800;2023-03-12T04:21:19;100975.50;;;-0.02;100.00
29549;BME280;16487;53.094;8.800;2023-03-12T04:23:49;100959.03;;;-0.06;100.00
29549;BME280;16487;53.094;8.800;2023-03-12T04:26:18;100955.91;;;-0.04;100.00
29549;BME280;16487;53.094;8.800;2023-03-12T04:28:46;100946.47;;;-0.07;100.00
29549;BME280;16487;53.094;8.800;2023-03-12T04:31:13;100943.00;;;-0.04;100.00
29549;BME280;16487;53.094;8.800;2023-03-12T04:33:49;100931.94;;;-0.11;100.00
29549;BME280;16487;53.094;8.800;2023-03-12T04:36:19;100921.81;;;-0.07;100.00
29549;BME280;16487;53.094;8.800;2023-03-12T04:38:49;100915.50;;;-0.11;100.00
29549;BME280;16487;53.094;8.800;2023-03-12T04:41:20;100909.41;;;-0.01;100.00
29549;BME280;16487;53.094;8.800;2023-03-12T04:43:57;100889.78;;;-0.03;100.00
29549;BME280;16487;53.094;8.800;2023-03-12T04:46:24;100888.28;;;0.00;100.00
29549;BME280;16487;53.094;8.800;2023-03-12T04:48:52;100879.69;;;0.02;100.00
29549;BME280;16487;53.094;8.800;2023-03-12T04:51:19;100873.41;;;0.01;100.00
29549;BME280;16487;53.094;8.800;2023-03-12T04:53:46;100868.72;;;0.02;100.00
29549;BME280;16487;53.094;8.800;2023-03-12T04:56:16;100854.28;;;0.05;100.00
29549;BME280;16487;53.094;8.800;2023-03-12T04:58:45;100840.50;;;-0.03;100.00
29549;BME280;16487;53.094;8.800;2023-03-12T05:01:21;100833.44;;;-0.04;100.00
29549;BME280;16487;53.094;8.800;2023-03-12T05:03:50;100825.53;;;-0.09;100.00
29549;BME280;16487;53.094;8.800;2023-03-12T05:06:18;100813.84;;;-0.06;100.00
29549;BME280;16487;53.094;8.800;2023-03-12T05:08:46;100813.00;;;-0.10;100.00
29549;BME280;16487;53.094;8.800;2023-03-12T05:11:16;100801.19;;;-0.14;100.00
29549;BME280;16487;53.094;8.800;2023-03-12T05:13:44;100798.84;;;-0.15;100.00
29549;BME280;16487;53.094;8.800;2023-03-12T05:16:12;100796.47;;;-0.17;100.00
29549;BME280;16487;53.094;8.800;2023-03-12T05:18:40;100806.63;;;-0.17;100.00
29549;BME280;16487;53.094;8.800;2023-03-12T05:21:10;100802.03;;;-0.10;100.00
29549;BME280;16487;53.094;8.800;2023-03-12T05:23:38;100795.75;;;-0.10;100.00
29549;BME280;16487;53.094;8.800;2023-03-12T05:26:06;100794.25;;;-0.08;100.00
29549;BME280;16487;53.094;8.800;2023-03-12T05:28:35;100791.94;;;-0.06;100.00
29549;BME280;16487;53.094;8.800;2023-03-12T05:31:08;100793.50;;;-0.05;100.00
29549;BME280;16487;53.094;8.800;2023-03-12T05:33:36;100777.81;;;-0.08;100.00
29549;BME280;16487;53.094;8.800;2023-03-12T05:36:04;100770.13;;;0.02;100.00
29549;BME280;16487;53.094;8.800;2023-03-12T05:38:32;100766.22;;;0.03;100.00
29549;BME280;16487;53.094;8.800;2023-03-12T05:40:59;100758.00;;;0.03;100.00
29549;BME280;16487;53.094;8.800;2023-03-12T05:43:29;100739.56;;;-0.01;100.00
29549;BME280;16487;53.094;8.800;2023-03-12T05:46:00;100732.16;;;0.00;100.00
29549;BME280;16487;53.094;8.800;2023-03-12T05:48:28;100729.75;;;-0.02;100.00
29549;BME280;16487;53.094;8.800;2023-03-12T05:50:56;100725.50;;;0.01;100.00
29549;BME280;16487;53.094;8.800;2023-03-12T05:53:23;100724.78;;;0.08;100.00
29549;BME280;16487;53.094;8.800;2023-03-12T05:55:52;100718.47;;;0.03;100.00
29549;BME280;16487;53.094;8.800;2023-03-12T05:58:19;100706.88;;;0.14;100.00
29549;BME280;16487;53.094;8.800;2023-03-12T06:00:47;100700.63;;;0.17;100.00
29549;BME280;16487;53.094;8.800;2023-03-12T06:03:16;100675.19;;;0.16;100.00
29549;BME280;16487;53.094;8.800;2023-03-12T06:05:43;100674.03;;;0.17;100.00
29549;BME280;16487;53.094;8.800;2023-03-12T06:08:11;100661.09;;;0.18;100.00
29549;BME280;16487;53.094;8.800;2023-03-12T06:10:39;100649.03;;;0.22;100.00
29549;BME280;16487;53.094;8.800;2023-03-12T06:13:06;100640.44;;;0.24;100.00
29549;BME280;16487;53.094;8.800;2023-03-12T06:15:34;100619.34;;;0.28;100.00
29549;BME280;16487;53.094;8.800;2023-03-12T06:18:03;100607.97;;;0.26;100.00
29549;BME280;16487;53.094;8.800;2023-03-12T06:20:33;100600.44;;;0.19;100.00
29549;BME280;16487;53.094;8.800;2023-03-12T06:23:00;100594.28;;;0.26;100.00
29549;BME280;16487;53.094;8.800;2023-03-12T06:25:28;100589.56;;;0.26;100.00
29549;BME280;16487;53.094;8.800;2023-03-12T06:27:56;100561.75;;;0.21;100.00
29549;BME280;16487;53.094;8.800;2023-03-12T06:30:23;100557.06;;;0.25;100.00
29549;BME280;16487;53.094;8.800;2023-03-12T06:32:50;100546.50;;;0.27;100.00
29549;BME280;16487;53.094;8.800;2023-03-12T06:35:18;100542.97;;;0.26;100.00
29549;BME280;16487;53.094;8.800;2023-03-12T06:37:47;100532.03;;;0.30;100.00
29549;BME280;16487;53.094;8.800;2023-03-12T06:40:15;100525.06;;;0.36;100.00
29549;BME280;16487;53.094;8.800;2023-03-12T06:42:42;100518.75;;;0.32;100.00
29549;BME280;16487;53.094;8.800;2023-03-12T06:45:10;100500.41;;;0.39;100.00
29549;BME280;16487;53.094;8.800;2023-03-12T06:47:37;100488.31;;;0.44;100.00
29549;BME280;16487;53.094;8.800;2023-03-12T06:50:05;100475.53;;;0.65;100.00
29549;BME280;16487;53.094;8.800;2023-03-12T06:52:32;100459.19;;;0.86;100.00
29549;BME280;16487;53.094;8.800;2023-03-12T06:55:01;100427.03;;;0.83;100.00
29549;BME280;16487;53.094;8.800;2023-03-12T06:57:28;100413.75;;;0.89;100.00
29549;BME280;16487;53.094;8.800;2023-03-12T06:59:55;100379.28;;;0.95;100.00
29549;BME280;16487;53.094;8.800;2023-03-12T07:02:23;100368.72;;;1.00;100.00
29549;BME280;16487;53.094;8.800;2023-03-12T07:04:50;100341.28;;;1.04;100.00
29549;BME280;16487;53.094;8.800;2023-03-12T07:07:17;100337.00;;;1.21;100.00
29549;BME280;16487;53.094;8.800;2023-03-12T07:09:45;100310.75;;;1.05;100.00
29549;BME280;16487;53.094;8.800;2023-03-12T07:12:13;100300.53;;;1.02;100.00
29549;BME280;16487;53.094;8.800;2023-03-12T07:14:41;100292.31;;;1.09;100.00
29549;BME280;16487;53.094;8.800;2023-03-12T07:17:08;100271.16;;;1.10;100.00
29549;BME280;16487;53.094;8.800;2023-03-12T07:19:35;100258.59;;;1.30;100.00
29549;BME280;16487;53.094;8.800;2023-03-12T07:22:03;100248.41;;;1.34;100.00
29549;BME280;16487;53.094;8.800;2023-03-12T07:24:30;100222.50;;;1.56;100.00
29549;BME280;16487;53.094;8.800;2023-03-12T07:26:58;100188.34;;;1.71;100.00
29549;BME280;16487;53.094;8.800;2023-03-12T07:29:26;100157.34;;;1.71;100.00
29549;BME280;16487;53.094;8.800;2023-03-12T07:31:54;100129.03;;;1.81;100.00
29549;BME280;16487;53.094;8.800;2023-03-12T07:34:21;100106.25;;;1.84;100.00
29549;BME280;16487;53.094;8.800;2023-03-12T07:36:48;100084.25;;;1.94;100.00
29549;BME280;16487;53.094;8.800;2023-03-12T07:39:16;100055.31;;;1.76;100.00
29549;BME280;16487;53.094;8.800;2023-03-12T07:41:43;100041.53;;;1.86;100.00
29549;BME280;16487;53.094;8.800;2023-03-12T07:44:10;100025.41;;;1.88;100.00
29549;BME280;16487;53.094;8.800;2023-03-12T07:46:39;100011.34;;;1.79;100.00
29549;BME280;16487;53.094;8.800;2023-03-12T07:49:07;99999.13;;;1.87;100.00
29549;BME280;16487;53.094;8.800;2023-03-12T07:51:34;99980.13;;;2.10;100.00
29549;BME280;16487;53.094;8.800;2023-03-12T07:54:01;99957.03;;;2.01;100.00
29549;BME280;16487;53.094;8.800;2023-03-12T07:56:29;99950.78;;;1.97;100.00
29549;BME280;16487;53.094;8.800;2023-03-12T07:58:57;99949.28;;;1.85;100.00
29549;BME280;16487;53.094;8.800;2023-03-12T08:01:24;99936.66;;;1.98;100.00
29549;BME280;16487;53.094;8.800;2023-03-12T08:03:53;99922.41;;;2.10;100.00
29549;BME280;16487;53.094;8.800;2023-03-12T08:06:20;99903.94;;;2.14;100.00
29549;BME280;16487;53.094;8.800;2023-03-12T08:08:47;99884.56;;;2.28;100.00
29549;BME280;16487;53.094;8.800;2023-03-12T08:11:15;99874.31;;;2.29;100.00
29549;BME280;16487;53.094;8.800;2023-03-12T08:13:42;99858.97;;;2.35;100.00
29549;BME280;16487;53.094;8.800;2023-03-12T08:16:10;99851.56;;;2.28;100.00
29549;BME280;16487;53.094;8.800;2023-03-12T08:18:38;99844.38;;;2.38;100.00
29549;BME280;16487;53.094;8.800;2023-03-12T08:21:07;99829.56;;;2.62;100.00
29549;BME280;16487;53.094;8.800;2023-03-12T08:23:34;99804.84;;;2.59;100.00
29549;BME280;16487;53.094;8.800;2023-03-12T08:26:01;99788.78;;;2.87;100.00
29549;BME280;16487;53.094;8.800;2023-03-12T08:28:29;99778.28;;;2.79;100.00
29549;BME280;16487;53.094;8.800;2023-03-12T08:30:58;99776.94;;;2.90;100.00
29549;BME280;16487;53.094;8.800;2023-03-12T08:33:26;99766.94;;;3.00;100.00
29549;BME280;16487;53.094;8.800;2023-03-12T08:35:54;99763.75;;;3.28;100.00
29549;BME280;16487;53.094;8.800;2023-03-12T08:38:23;99754.44;;;3.22;100.00
29549;BME280;16487;53.094;8.800;2023-03-12T08:40:54;99744.00;;;3.33;100.00
29549;BME280;16487;53.094;8.800;2023-03-12T08:43:22;99746.41;;;3.31;100.00
29549;BME280;16487;53.094;8.800;2023-03-12T08:45:52;99745.81;;;3.66;100.00
29549;BME280;16487;53.094;8.800;2023-03-12T08:48:20;99751.84;;;3.34;100.00
29549;BME280;16487;53.094;8.800;2023-03-12T08:50:47;99747.84;;;3.16;100.00
29549;BME280;16487;53.094;8.800;2023-03-12T08:53:15;99742.59;;;3.25;100.00
29549;BME280;16487;53.094;8.800;2023-03-12T08:55:43;99725.34;;;3.44;100.00
29549;BME280;16487;53.094;8.800;2023-03-12T08:58:11;99717.66;;;3.55;100.00
29549;BME280;16487;53.094;8.800;2023-03-12T09:00:38;99723.16;;;3.98;100.00
29549;BME280;16487;53.094;8.800;2023-03-12T09:03:05;99732.78;;;4.29;100.00
29549;BME280;16487;53.094;8.800;2023-03-12T09:05:33;99750.44;;;4.31;100.00
29549;BME280;16487;53.094;8.800;2023-03-12T09:08:00;99761.34;;;3.99;100.00
29549;BME280;16487;53.094;8.800;2023-03-12T09:10:27;99765.81;;;3.70;100.00
29549;BME280;16487;53.094;8.800;2023-03-12T09:12:58;99744.75;;;3.60;100.00
29549;BME280;16487;53.094;8.800;2023-03-12T09:15:26;99742.00;;;3.60;100.00
29549;BME280;16487;53.094;8.800;2023-03-12T09:17:53;99738.03;;;3.61;100.00
29549;BME280;16487;53.094;8.800;2023-03-12T09:20:21;99737.63;;;3.82;100.00
29549;BME280;16487;53.094;8.800;2023-03-12T09:22:49;99734.25;;;3.94;100.00
29549;BME280;16487;53.094;8.800;2023-03-12T09:25:16;99731.16;;;3.92;100.00
29549;BME280;16487;53.094;8.800;2023-03-12T09:27:45;99724.00;;;4.34;100.00
29549;BME280;16487;53.094;8.800;2023-03-12T09:30:16;99713.84;;;4.47;100.00
29549;BME280;16487;53.094;8.800;2023-03-12T09:32:44;99742.53;;;4.33;100.00
29549;BME280;16487;53.094;8.800;2023-03-12T09:35:16;99723.13;;;4.56;100.00
29549;BME280;16487;53.094;8.800;2023-03-12T09:37:47;99716.16;;;4.13;100.00
29549;BME280;16487;53.094;8.800;2023-03-12T09:40:16;99704.91;;;4.23;100.00
29549;BME280;16487;53.094;8.800;2023-03-12T09:42:47;99692.38;;;4.74;100.00
29549;BME280;16487;53.094;8.800;2023-03-12T09:45:20;99707.97;;;4.64;100.00
29549;BME280;16487;53.094;8.800;2023-03-12T09:47:50;99739.66;;;4.76;100.00
29549;BME280;16487;53.094;8.800;2023-03-12T09:50:23;99740.97;;;4.88;100.00
29549;BME280;16487;53.094;8.800;2023-03-12T09:52:57;99739.06;;;5.01;100.00
29549;BME280;16487;53.094;8.800;2023-03-12T09:55:26;99770.56;;;5.03;100.00
29549;BME280;16487;53.094;8.800;2023-03-12T09:57:55;99768.03;;;4.93;100.00
29549;BME280;16487;53.094;8.800;2023-03-12T10:00:28;99757.69;;;4.81;100.00
29549;BME280;16487;53.094;8.800;2023-03-12T10:03:22;99749.59;;;5.22;100.00
29549;BME280;16487;53.094;8.800;2023-03-12T10:06:05;99775.59;;;5.56;100.00
29549;BME280;16487;53.094;8.800;2023-03-12T10:08:45;99820.72;;;5.18;100.00
29549;BME280;16487;53.094;8.800;2023-03-12T10:11:26;99807.41;;;5.13;100.00
29549;BME280;16487;53.094;8.800;2023-03-12T10:14:04;99785.88;;;5.24;100.00
29549;BME280;16487;53.094;8.800;2023-03-12T10:16:47;99756.56;;;4.94;100.00
29549;BME280;16487;53.094;8.800;2023-03-12T10:19:31;99745.88;;;5.60;100.00
29549;BME280;16487;53.094;8.800;2023-03-12T10:22:06;99800.03;;;5.74;100.00
29549;BME280;16487;53.094;8.800;2023-03-12T10:24:47;99797.63;;;5.60;100.00
29549;BME280;16487;53.094;8.800;2023-03-12T10:27:17;99781.03;;;5.76;100.00
29549;BME280;16487;53.094;8.800;2023-03-12T10:29:47;99771.19;;;6.20;100.00
29549;BME280;16487;53.094;8.800;2023-03-12T10:32:22;99799.03;;;6.70;100.00
29549;BME280;16487;53.094;8.800;2023-03-12T10:34:54;99773.31;;;6.28;100.00
29549;BME280;16487;53.094;8.800;2023-03-12T10:37:24;99783.75;;;6.37;100.00
29549;BME280;16487;53.094;8.800;2023-03-12T10:39:53;99776.31;;;6.75;100.00
29549;BME280;16487;53.094;8.800;2023-03-12T10:42:23;99788.28;;;5.86;100.00
29549;BME280;16487;53.094;8.800;2023-03-12T10:44:52;99770.31;;;5.78;100.00
29549;BME280;16487;53.094;8.800;2023-03-12T10:47:34;99735.44;;;5.52;100.00
29549;BME280;16487;53.094;8.800;2023-03-12T10:50:14;99694.75;;;5.52;100.00
29549;BME280;16487;53.094;8.800;2023-03-12T10:52:43;99690.03;;;5.37;100.00
29549;BME280;16487;53.094;8.800;2023-03-12T10:55:18;99677.53;;;5.16;100.00
29549;BME280;16487;53.094;8.800;2023-03-12T10:57:46;99686.88;;;5.22;100.00
29549;BME280;16487;53.094;8.800;2023-03-12T11:00:18;99700.19;;;5.56;100.00
29549;BME280;16487;53.094;8.800;2023-03-12T11:02:55;99669.78;;;5.27;100.00
29549;BME280;16487;53.094;8.800;2023-03-12T11:05:24;99639.84;;;5.26;100.00
29549;BME280;16487;53.094;8.800;2023-03-12T11:07:53;99632.06;;;5.21;100.00
29549;BME280;16487;53.094;8.800;2023-03-12T11:10:23;99654.78;;;4.96;100.00
29549;BME280;16487;53.094;8.800;2023-03-12T11:12:55;99642.59;;;5.10;100.00
29549;BME280;16487;53.094;8.800;2023-03-12T11:15:24;99619.50;;;5.04;100.00
29549;BME280;16487;53.094;8.800;2023-03-12T11:18:16;99601.19;;;4.94;100.00
29549;BME280;16487;53.094;8.800;2023-03-12T11:20:44;99573.38;;;4.72;100.00
29549;BME280;16487;53.094;8.800;2023-03-12T11:23:13;99565.22;;;4.97;100.00
29549;BME280;16487;53.094;8.800;2023-03-12T11:25:41;99549.16;;;4.63;100.00
29549;BME280;16487;53.094;8.800;2023-03-12T11:28:19;99522.59;;;4.53;100.00
29549;BME280;16487;53.094;8.800;2023-03-12T11:30:49;99494.25;;;4.37;100.00
29549;BME280;16487;53.094;8.800;2023-03-12T11:33:20;99471.84;;;4.35;100.00
29549;BME280;16487;53.094;8.800;2023-03-12T11:35:54;99432.03;;;4.36;100.00
29549;BME280;16487;53.094;8.800;2023-03-12T11:38:27;99434.03;;;3.87;100.00
29549;BME280;16487;53.094;8.800;2023-03-12T11:41:05;99449.66;;;3.74;100.00
29549;BME280;16487;53.094;8.800;2023-03-12T11:43:49;99509.47;;;3.38;100.00
29549;BME280;16487;53.094;8.800;2023-03-12T11:46:29;99571.69;;;3.16;100.00
29549;BME280;16487;53.094;8.800;2023-03-12T11:49:08;99640.00;;;3.21;100.00
29549;BME280;16487;53.094;8.800;2023-03-12T11:51:45;99687.81;;;3.07;100.00
29549;BME280;16487;53.094;8.800;2023-03-12T11:54:27;99749.16;;;3.08;100.00
29549;BME280;16487;53.094;8.800;2023-03-12T11:56:59;99790.13;;;3.02;100.00
29549;BME280;16487;53.094;8.800;2023-03-12T11:59:38;99819.31;;;2.93;100.00
29549;BME280;16487;53.094;8.800;2023-03-12T12:02:28;99853.13;;;2.93;100.00
29549;BME280;16487;53.094;8.800;2023-03-12T12:05:11;99877.66;;;2.81;100.00
29549;BME280;16487;53.094;8.800;2023-03-12T12:07:53;99888.00;;;2.73;100.00
29549;BME280;16487;53.094;8.800;2023-03-12T12:10:27;99906.63;;;2.92;100.00
29549;BME280;16487;53.094;8.800;2023-03-12T12:13:05;99904.19;;;2.98;100.00
29549;BME280;16487;53.094;8.800;2023-03-12T12:15:40;99898.88;;;2.84;100.00
29549;BME280;16487;53.094;8.800;2023-03-12T12:18:24;99903.44;;;2.94;100.00
29549;BME280;16487;53.094;8.800;2023-03-12T12:20:57;99902.78;;;2.83;100.00
29549;BME280;16487;53.094;8.800;2023-03-12T12:23:36;99916.06;;;2.91;100.00
29549;BME280;16487;53.094;8.800;2023-03-12T12:26:07;99924.34;;;2.88;100.00
29549;BME280;16487;53.094;8.800;2023-03-12T12:28:53;99937.97;;;2.98;100.00
29549;BME280;16487;53.094;8.800;2023-03-12T12:31:31;99957.34;;;2.88;100.00
29549;BME280;16487;53.094;8.800;2023-03-12T12:34:11;99968.09;;;2.79;100.00
29549;BME280;16487;53.094;8.800;2023-03-12T12:36:48;100019.22;;;2.73;100.00
29549;BME280;16487;53.094;8.800;2023-03-12T12:39:22;100046.00;;;2.65;100.00
29549;BME280;16487;53.094;8.800;2023-03-12T12:41:58;100095.56;;;2.62;100.00
29549;BME280;16487;53.094;8.800;2023-03-12T12:44:33;100118.28;;;2.73;100.00
29549;BME280;16487;53.094;8.800;2023-03-12T12:47:04;100147.47;;;2.60;100.00
29549;BME280;16487;53.094;8.800;2023-03-12T12:49:40;100188.22;;;2.75;100.00
29549;BME280;16487;53.094;8.800;2023-03-12T12:52:14;100218.81;;;2.81;100.00
29549;BME280;16487;53.094;8.800;2023-03-12T12:54:49;100242.47;;;2.68;100.00
29549;BME280;16487;53.094;8.800;2023-03-12T12:57:23;100272.75;;;2.64;100.00
29549;BME280;16487;53.094;8.800;2023-03-12T13:00:04;100312.38;;;2.77;100.00
29549;BME280;16487;53.094;8.800;2023-03-12T13:02:38;100317.09;;;2.80;100.00
29549;BME280;16487;53.094;8.800;2023-03-12T13:05:18;100342.25;;;2.79;100.00